Time;durP1;ratioP1;P1;durP2;ratioP2;P2;SDS_P1;SDS_P2;PMS_P1;PMS_P2;Temp;Humidity;BMP_temperature;BMP_pressure;BME280_temperature;BME280_humidity;BME280_pressure;Samples;Min_cycle;Max_cycle;Signal;HPM_P1;HPM_P2
2023/07/22 00:00:28;;;;;;;16.90;10.35;;;;;;;16.90;66.53;101307.06;5095459;28;20028;-58
2023/07/22 00:02:54;;;;;;;16.92;10.05;;;;;;;16.89;66.71;101303.53;5095606;28;20089;-59
2023/07/22 00:05:23;;;;;;;15.52;10.52;;;;;;;16.85;66.74;101308.91;5095745;28;20036;-57
2023/07/22 00:07:49;;;;;;;17.88;11.63;;;;;;;16.78;67.12;101305.38;5095704;28;20070;-57
2023/07/22 00:10:15;;;;;;;15.48;11.02;;;;;;;16.72;67.55;101317.00;5095292;28;20531;-58
2023/07/22 00:12:41;;;;;;;17.73;10.73;;;;;;;16.68;67.55;101304.53;5095269;28;20024;-57
2023/07/22 00:15:07;;;;;;;17.23;11.05;;;;;;;16.62;67.84;101315.25;5095213;28;20466;-57
2023/07/22 00:17:32;;;;;;;18.10;10.90;;;;;;;16.58;68.02;101307.28;5095137;28;20355;-57
2023/07/22 00:19:57;;;;;;;19.25;11.70;;;;;;;16.53;67.92;101300.19;5095420;28;20032;-58
2023/07/22 00:22:23;;;;;;;16.30;11.13;;;;;;;16.53;68.10;101301.97;5095201;28;20107;-57
2023/07/22 00:24:48;;;;;;;15.77;10.60;;;;;;;16.52;68.12;101301.06;5095352;28;20024;-58
2023/07/22 00:27:14;;;;;;;19.38;12.05;;;;;;;16.53;68.06;101305.53;5095054;28;20170;-58
2023/07/22 00:29:39;;;;;;;16.50;10.90;;;;;;;16.51;68.42;101298.41;5094693;28;20047;-57
2023/07/22 00:32:07;;;;;;;16.95;11.55;;;;;;;16.49;68.28;101298.44;5094770;28;20050;-58
2023/07/22 00:34:32;;;;;;;13.68;10.38;;;;;;;16.55;68.23;101307.31;5095146;28;20028;-58
2023/07/22 00:36:58;;;;;;;15.52;11.13;;;;;;;16.56;68.02;101309.94;5094810;28;20024;-58
2023/07/22 00:39:24;;;;;;;18.88;11.45;;;;;;;16.52;68.08;101300.19;5095053;28;20039;-58
2023/07/22 00:41:49;;;;;;;17.30;10.95;;;;;;;16.50;68.08;101300.22;5094674;28;20028;-58
2023/07/22 00:44:15;;;;;;;15.60;11.40;;;;;;;16.45;68.38;101304.69;5076636;28;20063;-57
2023/07/22 00:46:40;;;;;;;17.58;10.80;;;;;;;16.44;68.55;101307.34;5094557;28;20034;-58
2023/07/22 00:49:07;;;;;;;17.40;10.20;;;;;;;16.43;68.41;101298.47;5094861;28;20063;-58
2023/07/22 00:51:33;;;;;;;16.73;10.48;;;;;;;16.41;68.72;101292.28;5094705;28;20023;-58
2023/07/22 00:53:58;;;;;;;15.55;10.48;;;;;;;16.47;68.59;101296.66;5094404;28;20036;-57
2023/07/22 00:56:24;;;;;;;16.13;10.80;;;;;;;16.56;68.31;101295.72;5094534;28;20103;-58
2023/07/22 00:58:49;;;;;;;16.90;10.77;;;;;;;16.53;68.53;101296.66;5094441;28;20492;-58
2023/07/22 01:01:15;;;;;;;17.13;10.80;;;;;;;16.55;68.51;101289.50;5076217;28;20118;-58
2023/07/22 01:03:41;;;;;;;15.48;10.07;;;;;;;16.59;68.45;101285.91;5094441;28;20056;-57
2023/07/22 01:06:07;;;;;;;17.17;10.73;;;;;;;16.65;68.41;101290.31;5094188;28;20107;-58
2023/07/22 01:08:32;;;;;;;15.52;10.55;;;;;;;16.69;68.59;101287.63;5094549;28;20108;-58
2023/07/22 01:10:59;;;;;;;16.40;10.65;;;;;;;16.74;68.22;101293.88;5094298;28;20146;-58
2023/07/22 01:13:24;;;;;;;17.05;10.85;;;;;;;16.78;68.21;101297.38;5094089;28;20066;-57
2023/07/22 01:15:50;;;;;;;15.45;10.45;;;;;;;16.74;68.19;101290.28;5094120;28;20032;-57
2023/07/22 01:18:15;;;;;;;15.50;10.38;;;;;;;16.66;68.68;101292.09;5094272;28;20028;-58
2023/07/22 01:20:42;;;;;;;14.75;10.30;;;;;;;16.60;69.13;101286.81;5094161;28;20032;-57
2023/07/22 01:23:08;;;;;;;17.10;10.85;;;;;;;16.62;68.93;101279.69;5093960;28;20573;-58
2023/07/22 01:25:33;;;;;;;14.48;10.82;;;;;;;16.53;69.63;101275.31;5093652;28;20107;-58
2023/07/22 01:27:59;;;;;;;16.77;10.65;;;;;;;16.52;69.40;101273.50;5093915;28;20020;-58
2023/07/22 01:30:27;;;;;;;15.48;10.20;;;;;;;16.50;69.50;101276.19;5093616;28;20130;-58
2023/07/22 01:32:52;;;;;;;18.77;10.80;;;;;;;16.39;70.41;101279.81;5093595;28;20032;-57
2023/07/22 01:35:18;;;;;;;17.13;11.02;;;;;;;16.34;70.83;101278.97;5093817;28;20035;-58
2023/07/22 01:37:43;;;;;;;15.77;10.48;;;;;;;16.36;70.74;101277.16;5093800;28;20029;-58
2023/07/22 01:40:12;;;;;;;19.88;10.35;;;;;;;16.37;70.67;101284.28;5093702;28;20031;-57
2023/07/22 01:42:39;;;;;;;20.58;10.90;;;;;;;16.27;71.44;101270.09;5093547;28;20070;-58
2023/07/22 01:45:07;;;;;;;17.50;10.38;;;;;;;16.30;71.23;101269.22;5075637;28;20024;-58
2023/07/22 01:47:34;;;;;;;18.08;10.90;;;;;;;16.25;71.75;101269.25;5093864;28;20032;-58
2023/07/22 01:50:00;;;;;;;18.27;10.50;;;;;;;16.28;71.41;101263.91;5093544;28;20497;-58
2023/07/22 01:52:25;;;;;;;17.63;10.82;;;;;;;16.30;71.33;101263.88;5093726;28;20131;-58
2023/07/22 01:54:51;;;;;;;18.98;10.98;;;;;;;16.31;71.17;101262.97;5093499;28;20462;-58
2023/07/22 01:57:16;;;;;;;15.65;10.30;;;;;;;16.32;71.23;101270.09;5093499;28;20056;-57
2023/07/22 01:59:41;;;;;;;15.95;11.02;;;;;;;16.28;71.51;101266.56;5093574;28;20025;-59
2023/07/22 02:02:07;;;;;;;16.60;11.00;;;;;;;16.25;71.50;101266.56;5093511;28;20020;-58
2023/07/22 02:04:32;;;;;;;17.40;11.20;;;;;;;16.26;71.44;101271.88;5093429;28;20031;-57
2023/07/22 02:06:57;;;;;;;15.73;10.77;;;;;;;16.31;71.09;101268.31;5093350;28;20068;-59
2023/07/22 02:09:23;;;;;;;17.33;11.20;;;;;;;16.22;71.91;101266.59;5093326;28;20032;-58
2023/07/22 02:11:49;;;;;;;16.65;11.25;;;;;;;16.18;72.05;101265.72;5093422;28;20044;-58
2023/07/22 02:14:14;;;;;;;20.63;11.57;;;;;;;16.13;72.40;101261.31;5093061;28;20099;-58
2023/07/22 02:16:40;;;;;;;16.15;10.60;;;;;;;16.13;72.25;101258.66;5093296;28;20024;-58
2023/07/22 02:19:05;;;;;;;16.73;10.68;;;;;;;16.06;72.32;101263.16;5093222;28;20035;-57
2023/07/22 02:21:30;;;;;;;17.33;10.93;;;;;;;15.97;72.79;101256.06;5093181;28;20108;-58
2023/07/22 02:23:56;;;;;;;16.50;11.05;;;;;;;15.93;73.18;101250.75;5093149;28;20055;-58
2023/07/22 02:26:21;;;;;;;16.73;10.93;;;;;;;15.89;73.35;101247.22;5058443;28;20073;-58
2023/07/22 02:28:48;;;;;;;18.52;11.13;;;;;;;15.85;73.50;101248.13;5092841;28;20457;-59
2023/07/22 02:31:13;;;;;;;17.58;11.00;;;;;;;15.88;73.53;101249.88;5092781;28;20406;-58
2023/07/22 02:33:39;;;;;;;16.67;11.18;;;;;;;15.87;73.65;101250.78;5093329;28;20029;-58
2023/07/22 02:36:04;;;;;;;15.90;11.02;;;;;;;15.83;73.71;101257.91;5093364;28;20028;-58
2023/07/22 02:38:30;;;;;;;20.52;11.80;;;;;;;15.79;74.10;101250.81;5095333;28;20169;-58
2023/07/22 02:41:01;;;;;;;17.58;10.85;;;;;;;15.77;73.99;101250.81;5097146;28;20120;-58
2023/07/22 02:43:26;;;;;;;17.63;11.60;;;;;;;15.78;74.18;101244.59;5097004;28;20032;-58
2023/07/22 02:45:53;;;;;;;18.25;11.48;;;;;;;15.79;74.08;101250.81;5097210;28;20077;-58
2023/07/22 02:48:18;;;;;;;19.48;12.38;;;;;;;15.68;74.66;101250.88;5097243;28;20054;-58
2023/07/22 02:50:44;;;;;;;20.08;11.63;;;;;;;15.66;74.56;101249.97;5097150;28;20124;-57
2023/07/22 02:53:09;;;;;;;17.17;11.88;;;;;;;15.61;75.05;101246.41;5096846;28;20077;-58
2023/07/22 02:55:35;;;;;;;20.02;11.85;;;;;;;15.52;75.42;101239.34;5097140;28;20020;-58
2023/07/22 02:58:00;;;;;;;18.67;11.40;;;;;;;15.45;75.52;101256.22;5096826;28;20566;-58
2023/07/22 03:00:25;;;;;;;21.73;11.95;;;;;;;15.40;75.53;101252.69;5096657;28;20035;-58
2023/07/22 03:03:00;;;;;;;19.35;11.77;;;;;;;15.37;75.89;101257.13;5096983;28;20024;-57
2023/07/22 03:05:27;;;;;;;19.00;11.10;;;;;;;15.30;75.92;101250.94;5097006;28;20024;-57
2023/07/22 03:07:53;;;;;;;17.95;11.55;;;;;;;15.29;76.13;101254.50;5096561;28;20036;-58
2023/07/22 03:10:19;;;;;;;16.63;10.65;;;;;;;15.31;75.91;101252.72;5096811;28;20028;-59
2023/07/22 03:12:44;;;;;;;17.75;11.20;;;;;;;15.35;75.82;101257.13;5096285;28;20032;-58
2023/07/22 03:15:12;;;;;;;18.77;11.18;;;;;;;15.28;75.81;101263.34;5096411;28;20024;-56
2023/07/22 03:17:39;;;;;;;18.58;11.02;;;;;;;15.23;76.03;101257.16;5096745;28;20028;-57
2023/07/22 03:20:08;;;;;;;16.02;10.48;;;;;;;15.22;76.30;101256.28;5096370;28;20078;-58
2023/07/22 03:22:34;;;;;;;18.90;11.25;;;;;;;15.17;76.30;101266.06;5096291;28;20466;-57
2023/07/22 03:24:59;;;;;;;16.00;10.50;;;;;;;15.16;76.38;101264.28;5096308;28;20027;-58
2023/07/22 03:27:25;;;;;;;18.02;10.57;;;;;;;15.15;76.33;101277.56;5096223;28;20111;-57
2023/07/22 03:29:50;;;;;;;15.32;10.50;;;;;;;15.13;76.66;101276.72;5096025;28;20055;-58
2023/07/22 03:32:16;;;;;;;16.08;10.75;;;;;;;15.17;76.56;101273.16;5096055;28;20377;-57
2023/07/22 03:34:41;;;;;;;16.25;10.32;;;;;;;15.08;76.87;101268.72;5096358;28;20115;-58
2023/07/22 03:37:06;;;;;;;19.10;10.75;;;;;;;14.99;76.97;101272.28;5095977;28;20088;-57
2023/07/22 03:39:32;;;;;;;17.63;10.00;;;;;;;14.99;77.18;101279.38;5077849;28;20039;-58
2023/07/22 03:41:57;;;;;;;14.45;10.02;;;;;;;14.92;77.33;101281.16;5095976;28;20020;-58
2023/07/22 03:44:23;;;;;;;15.48;10.13;;;;;;;14.92;77.42;101277.59;5095770;28;20035;-58
2023/07/22 03:46:48;;;;;;;15.07;10.48;;;;;;;14.83;78.31;101277.63;5095714;28;20029;-58
2023/07/22 03:49:14;;;;;;;15.50;10.30;;;;;;;14.80;78.51;101275.81;5095009;28;20035;-58
2023/07/22 03:51:39;;;;;;;19.10;10.88;;;;;;;14.72;78.81;101272.28;5095329;28;20038;-58
2023/07/22 03:54:04;;;;;;;17.58;11.32;;;;;;;14.63;79.28;101272.25;5095069;28;20030;-59
2023/07/22 03:56:30;;;;;;;16.73;10.95;;;;;;;14.61;79.73;101272.28;5095090;28;20020;-58
2023/07/22 03:58:57;;;;;;;17.27;10.85;;;;;;;14.59;79.72;101275.81;5076618;28;20109;-58
2023/07/22 04:01:22;;;;;;;18.05;11.00;;;;;;;14.56;79.71;101273.13;5094859;28;20024;-58
2023/07/22 04:03:47;;;;;;;16.33;10.48;;;;;;;14.59;80.03;101283.78;5095099;28;20035;-58
2023/07/22 04:06:13;;;;;;;20.15;11.02;;;;;;;14.58;80.16;101274.03;5094887;28;20450;-58
2023/07/22 04:08:38;;;;;;;15.63;10.07;;;;;;;14.58;79.83;101272.25;5076681;28;20035;-59
2023/07/22 04:11:03;;;;;;;16.45;9.98;;;;;;;14.54;80.38;101273.16;5094649;28;20501;-58
2023/07/22 04:13:29;;;;;;;17.63;10.55;;;;;;;14.52;80.56;101267.84;5094736;28;20031;-58
2023/07/22 04:15:54;;;;;;;14.57;9.70;;;;;;;14.55;80.11;101258.94;5076414;28;20032;-59
2023/07/22 04:18:20;;;;;;;18.15;10.50;;;;;;;14.52;80.67;101266.94;5094774;28;20462;-58
2023/07/22 04:20:48;;;;;;;16.60;10.75;;;;;;;14.52;80.38;101273.16;5094797;28;20043;-57
2023/07/22 04:23:13;;;;;;;17.33;10.00;;;;;;;14.55;80.72;101271.38;5094897;28;20032;-59
2023/07/22 04:25:43;;;;;;;16.33;10.52;;;;;;;14.56;80.46;101275.78;5094430;28;20028;-58
2023/07/22 04:28:09;;;;;;;20.50;10.85;;;;;;;14.53;80.60;101274.03;5094474;28;20039;-57
2023/07/22 04:30:37;;;;;;;18.42;10.43;;;;;;;14.56;80.18;101274.06;5094130;28;20040;-58
2023/07/22 04:33:05;;;;;;;16.92;9.80;;;;;;;14.59;80.20;101282.00;5094273;28;20069;-57
2023/07/22 04:35:35;;;;;;;15.23;10.02;;;;;;;14.63;80.22;101273.16;5094240;28;20530;-58
2023/07/22 04:38:01;;;;;;;17.52;9.85;;;;;;;14.67;80.00;101276.72;5094144;28;20051;-59
2023/07/22 04:40:26;;;;;;;17.10;10.27;;;;;;;14.68;80.00;101284.69;5076100;28;20066;-58
2023/07/22 04:42:52;;;;;;;18.05;10.02;;;;;;;14.67;80.02;101282.03;5093952;28;20538;-57
2023/07/22 04:45:23;;;;;;;17.10;10.13;;;;;;;14.68;80.14;101282.00;5094099;28;20457;-58
2023/07/22 04:47:52;;;;;;;15.32;10.27;;;;;;;14.73;79.88;101282.00;5094305;28;20035;-58
2023/07/22 04:50:17;;;;;;;16.45;10.63;;;;;;;14.76;80.15;101282.91;5094064;28;20047;-58
2023/07/22 04:52:46;;;;;;;16.77;10.25;;;;;;;14.72;79.99;101272.28;5092570;28;20056;-57
2023/07/22 04:55:12;;;;;;;17.73;10.15;;;;;;;14.83;80.12;101282.94;5073919;28;20086;-58
2023/07/22 04:57:40;;;;;;;16.20;10.05;;;;;;;14.89;79.68;101283.81;5073549;28;20029;-58
2023/07/22 05:00:09;;;;;;;15.48;9.50;;;;;;;14.95;79.48;101289.13;5072674;28;20028;-58
2023/07/22 05:02:35;;;;;;;16.38;9.90;;;;;;;15.09;79.05;101280.25;5073440;28;20115;-58
2023/07/22 05:05:00;;;;;;;17.25;10.02;;;;;;;15.18;79.45;101283.78;5073669;28;20116;-58
2023/07/22 05:07:26;;;;;;;17.58;10.13;;;;;;;15.27;78.87;101290.88;5073367;28;20035;-58
2023/07/22 05:09:52;;;;;;;16.38;10.32;;;;;;;15.29;79.25;101286.47;5073449;28;20127;-58
2023/07/22 05:12:18;;;;;;;19.65;10.75;;;;;;;15.24;79.71;101294.41;5073586;28;20043;-57
2023/07/22 05:14:45;;;;;;;16.88;9.93;;;;;;;15.28;79.39;101298.84;5072945;28;20032;-58
2023/07/22 05:17:11;;;;;;;16.50;10.18;;;;;;;15.30;79.05;101290.88;5073267;28;20031;-58
2023/07/22 05:19:36;;;;;;;19.23;10.80;;;;;;;15.26;79.65;101297.97;5055271;28;20021;-58
2023/07/22 05:22:01;;;;;;;16.95;10.55;;;;;;;15.28;79.85;101293.53;5073221;28;20042;-59
2023/07/22 05:24:27;;;;;;;18.85;10.52;;;;;;;15.23;79.87;101294.44;5073006;28;20020;-57
2023/07/22 05:26:53;;;;;;;17.77;10.50;;;;;;;15.23;79.96;101289.09;5038519;28;20040;-58
2023/07/22 05:29:19;;;;;;;18.88;10.15;;;;;;;15.24;79.99;101294.41;5072671;28;20506;-57
2023/07/22 05:31:45;;;;;;;18.55;10.77;;;;;;;15.32;79.90;101285.53;5072748;28;20020;-59
2023/07/22 05:34:10;;;;;;;18.10;10.63;;;;;;;15.30;79.69;101284.69;5073065;28;20060;-58
2023/07/22 05:36:35;;;;;;;14.43;9.68;;;;;;;15.36;78.98;101287.31;5072742;28;20024;-58
2023/07/22 05:39:01;;;;;;;16.92;10.05;;;;;;;15.36;79.78;101296.19;5073044;28;20109;-58
2023/07/22 05:41:26;;;;;;;18.40;10.30;;;;;;;15.40;80.18;101295.28;5072943;28;20043;-57
2023/07/22 05:43:52;;;;;;;20.83;10.05;;;;;;;15.46;79.67;101289.97;5072736;28;20390;-57
2023/07/22 05:46:17;;;;;;;19.00;10.23;;;;;;;15.64;79.27;101282.81;5072601;28;20111;-58
2023/07/22 05:48:43;;;;;;;17.27;10.20;;;;;;;15.88;78.78;101282.75;5072833;28;20501;-58
2023/07/22 05:51:09;;;;;;;16.10;10.35;;;;;;;16.17;77.59;101285.28;5072548;28;20028;-58
2023/07/22 05:53:34;;;;;;;18.30;10.43;;;;;;;16.26;76.80;101287.91;5072927;28;20021;-58
2023/07/22 05:56:00;;;;;;;16.55;10.20;;;;;;;16.35;76.56;101289.63;5072498;28;20028;-58
2023/07/22 05:58:25;;;;;;;17.27;10.27;;;;;;;16.35;76.90;101286.94;5072743;28;20024;-58
2023/07/22 06:00:51;;;;;;;19.77;10.48;;;;;;;16.38;77.40;101280.72;5072313;28;20052;-58
2023/07/22 06:03:17;;;;;;;17.73;10.85;;;;;;;16.53;76.69;101275.31;5072656;28;20029;-58
2023/07/22 06:05:43;;;;;;;16.58;10.65;;;;;;;16.68;75.62;101279.63;5072820;28;20344;-58
2023/07/22 06:08:08;;;;;;;17.98;10.15;;;;;;;16.80;75.69;101282.25;5072411;28;20497;-58
2023/07/22 06:10:34;;;;;;;17.65;10.65;;;;;;;16.95;75.22;101275.88;5072462;28;20074;-58
2023/07/22 06:13:00;;;;;;;20.63;10.45;;;;;;;17.15;73.83;101283.72;5071783;28;20063;-57
2023/07/22 06:15:25;;;;;;;20.42;10.80;;;;;;;17.28;74.20;101272.00;5072488;28;20031;-58
2023/07/22 06:17:50;;;;;;;24.38;11.20;;;;;;;17.46;73.35;101269.16;5072344;28;20033;-57
2023/07/22 06:20:16;;;;;;;18.05;10.90;;;;;;;17.51;72.69;101266.41;5072377;28;20536;-58
2023/07/22 06:22:41;;;;;;;20.88;10.68;;;;;;;17.53;73.38;101272.66;5072277;28;20123;-58
2023/07/22 06:25:07;;;;;;;19.83;10.88;;;;;;;17.44;73.01;101273.63;5072355;28;20035;-58
2023/07/22 06:27:33;;;;;;;20.35;11.40;;;;;;;17.38;73.59;101273.69;5072260;28;20032;-57
2023/07/22 06:29:58;;;;;;;20.20;11.50;;;;;;;17.26;73.34;101274.72;5071979;28;20506;-58
2023/07/22 06:32:24;;;;;;;16.10;11.13;;;;;;;17.28;73.62;101275.56;5054614;28;20064;-58
2023/07/22 06:34:49;;;;;;;20.65;11.23;;;;;;;17.38;73.83;101272.78;5072137;28;20338;-58
2023/07/22 06:37:15;;;;;;;18.75;10.80;;;;;;;17.51;73.31;101267.34;5089957;28;20110;-57
2023/07/22 06:39:40;;;;;;;18.08;11.38;;;;;;;17.68;73.57;101276.91;5092186;28;20024;-59
2023/07/22 06:42:05;;;;;;;18.88;11.38;;;;;;;17.80;73.17;101270.59;5092449;28;20396;-57
2023/07/22 06:44:32;;;;;;;20.02;11.18;;;;;;;17.90;72.70;101261.53;5092106;28;20020;-57
2023/07/22 06:46:57;;;;;;;19.08;11.13;;;;;;;18.07;72.32;101254.16;5092271;28;20055;-57
2023/07/22 06:49:23;;;;;;;23.08;12.80;;;;;;;18.12;73.22;101263.03;5073966;28;20477;-57
2023/07/22 06:51:48;;;;;;;21.30;11.88;;;;;;;18.18;73.11;101260.28;5092236;28;20177;-57
2023/07/22 06:54:14;;;;;;;23.52;12.10;;;;;;;18.30;72.16;101266.38;5092300;28;20157;-58
2023/07/22 06:56:39;;;;;;;18.95;11.40;;;;;;;18.45;71.66;101253.63;5092173;28;20027;-59
2023/07/22 06:59:04;;;;;;;20.90;11.50;;;;;;;18.61;71.59;101248.94;5092412;28;20024;-59
2023/07/22 07:01:30;;;;;;;23.00;11.38;;;;;;;18.81;70.75;101247.75;5092256;28;20043;-58
2023/07/22 07:03:55;;;;;;;19.08;11.38;;;;;;;18.79;70.24;101250.44;5092326;28;20071;-58
2023/07/22 07:06:20;;;;;;;21.67;11.45;;;;;;;18.69;70.98;101256.84;5092038;28;20032;-57
2023/07/22 07:08:46;;;;;;;20.02;11.75;;;;;;;18.80;71.94;101254.91;5092230;28;20088;-59
2023/07/22 07:11:11;;;;;;;20.13;10.63;;;;;;;19.08;70.22;101257.09;5092199;28;20039;-57
2023/07/22 07:13:37;;;;;;;23.35;11.75;;;;;;;19.25;69.50;101263.03;5073913;28;20445;-57
2023/07/22 07:16:25;;;;;;;18.65;10.55;;;;;;;19.34;69.18;101249.47;5092309;28;20064;-58
2023/07/22 07:18:51;;;;;;;21.35;11.77;;;;;;;19.16;69.02;101252.50;5092039;28;20481;-58
2023/07/22 07:21:18;;;;;;;21.67;12.00;;;;;;;19.09;69.53;101249.03;5091827;28;20028;-58
2023/07/22 07:23:44;;;;;;;17.88;11.55;;;;;;;19.03;69.79;101251.84;5092894;28;20123;-59
2023/07/22 07:26:09;;;;;;;19.63;11.57;;;;;;;19.00;69.57;101247.41;5095728;28;20107;-58
2023/07/22 07:28:35;;;;;;;21.58;11.63;;;;;;;18.87;70.34;101247.66;5095634;28;20077;-57
2023/07/22 07:31:00;;;;;;;19.60;11.82;;;;;;;18.75;70.67;101254.09;5095476;28;20052;-58
2023/07/22 07:33:25;;;;;;;21.77;11.30;;;;;;;18.73;70.51;101247.88;5077206;28;20028;-59
2023/07/22 07:35:51;;;;;;;20.30;11.25;;;;;;;18.58;71.44;101254.31;5095497;28;20512;-58
2023/07/22 07:38:16;;;;;;;24.75;11.38;;;;;;;18.53;72.18;101256.19;5095293;28;20110;-59
2023/07/22 07:40:42;;;;;;;21.70;11.00;;;;;;;18.52;72.70;101257.09;5095445;28;20032;-58
2023/07/22 07:43:09;;;;;;;20.98;11.27;;;;;;;18.43;72.99;101255.44;5094996;28;20051;-59
2023/07/22 07:45:39;;;;;;;20.88;10.70;;;;;;;18.51;72.18;101258.03;5095351;28;20036;-57
2023/07/22 07:48:07;;;;;;;22.27;11.32;;;;;;;18.58;73.10;101256.13;5095696;28;20032;-59
2023/07/22 07:50:33;;;;;;;22.15;10.30;;;;;;;18.59;72.78;101248.09;5095313;28;20036;-58
2023/07/22 07:52:59;;;;;;;22.70;10.32;;;;;;;18.67;73.22;101245.25;5095284;28;20036;-59
2023/07/22 07:55:25;;;;;;;20.95;10.95;;;;;;;18.76;71.69;101256.75;5094931;28;20535;-58
2023/07/22 07:57:50;;;;;;;22.55;10.70;;;;;;;18.90;72.39;101259.19;5095112;28;20032;-58
2023/07/22 08:00:16;;;;;;;16.88;10.15;;;;;;;19.12;71.62;101256.13;5094761;28;20028;-58
2023/07/22 08:02:42;;;;;;;22.35;10.85;;;;;;;19.39;70.21;101260.09;5095249;28;20103;-57
2023/07/22 08:05:07;;;;;;;17.58;10.68;;;;;;;19.51;70.06;101259.88;5094653;28;20031;-58
2023/07/22 08:07:33;;;;;;;17.10;9.85;;;;;;;19.65;69.17;101257.81;5094962;28;20487;-58
2023/07/22 08:09:59;;;;;;;18.60;10.05;;;;;;;19.68;68.80;101265.81;5094893;28;20032;-59
2023/07/22 08:12:24;;;;;;;16.02;9.38;;;;;;;19.66;67.48;101272.13;5094835;28;20115;-57
2023/07/22 08:14:53;;;;;;;16.75;9.40;;;;;;;19.76;67.73;101255.81;5094530;28;20083;-57
2023/07/22 08:17:18;;;;;;;19.92;9.20;;;;;;;19.82;66.83;101253.91;5094466;28;20482;-58
2023/07/22 08:19:44;;;;;;;19.38;8.80;;;;;;;19.92;65.43;101252.81;5094737;28;20107;-57
2023/07/22 08:22:09;;;;;;;15.32;9.20;;;;;;;20.05;65.74;101256.13;5094793;28;20086;-58
2023/07/22 08:24:34;;;;;;;16.23;8.77;;;;;;;20.00;66.57;101258.91;5076430;28;20347;-58
2023/07/22 08:27:00;;;;;;;14.63;8.63;;;;;;;19.94;65.60;101246.50;5094351;28;20028;-58
2023/07/22 08:29:25;;;;;;;18.73;9.02;;;;;;;19.98;65.59;101264.28;5094402;28;20044;-57
2023/07/22 08:31:51;;;;;;;15.15;8.48;;;;;;;19.93;65.45;101268.00;5094241;28;20107;-59
2023/07/22 08:34:16;;;;;;;14.80;8.90;;;;;;;20.04;66.26;101267.75;5094600;28;20052;-58
2023/07/22 08:36:42;;;;;;;17.23;9.10;;;;;;;20.16;66.10;101273.72;5093642;28;20386;-60
2023/07/22 08:39:07;;;;;;;15.23;8.18;;;;;;;20.37;64.48;101256.25;5094200;28;20035;-59
2023/07/22 08:41:33;;;;;;;19.58;8.90;;;;;;;20.54;63.49;101257.69;5076104;28;20028;-58
2023/07/22 08:43:59;;;;;;;15.00;7.68;;;;;;;20.95;63.10;101262.06;5093257;28;20032;-58
2023/07/22 08:46:32;;;;;;;12.95;8.27;;;;;;;20.95;61.98;101270.13;5093956;28;20111;-59
2023/07/22 08:49:00;;;;;;;14.38;8.18;;;;;;;21.15;62.18;101256.16;5093708;28;20035;-57
2023/07/22 08:51:28;;;;;;;13.68;7.82;;;;;;;21.35;60.66;101251.16;5093804;28;20050;-58
2023/07/22 08:53:56;;;;;;;11.75;7.32;;;;;;;21.81;58.24;101262.44;5093918;28;20099;-58
2023/07/22 08:56:25;;;;;;;15.65;7.45;;;;;;;21.97;57.55;101263.75;5093568;28;20032;-58
2023/07/22 08:58:51;;;;;;;13.95;7.65;;;;;;;22.08;58.61;101258.91;5092233;28;20020;-58
2023/07/22 09:01:17;;;;;;;11.18;6.43;;;;;;;22.39;54.83;101258.88;5075399;28;20020;-58
2023/07/22 09:03:43;;;;;;;13.93;6.60;;;;;;;22.66;54.48;101257.13;5093609;28;20473;-58
2023/07/22 09:06:09;;;;;;;11.93;6.53;;;;;;;22.77;54.33;101264.84;5093560;28;20161;-58
2023/07/22 09:08:34;;;;;;;11.18;6.30;;;;;;;22.82;53.22;101264.69;5093597;28;20450;-57
2023/07/22 09:11:01;;;;;;;12.68;5.68;;;;;;;22.76;51.90;101260.38;5093406;28;20027;-58
2023/07/22 09:13:27;;;;;;;13.27;6.68;;;;;;;22.82;53.07;101257.47;5093333;28;20032;-58
2023/07/22 09:15:53;;;;;;;11.80;6.10;;;;;;;22.85;54.06;101259.19;5093474;28;20024;-58
2023/07/22 09:18:18;;;;;;;11.82;6.82;;;;;;;22.81;54.31;101269.19;5093549;28;20042;-58
2023/07/22 09:20:44;;;;;;;12.18;6.50;;;;;;;22.68;53.48;101259.75;5093144;28;20028;-58
2023/07/22 09:23:10;;;;;;;9.85;6.30;;;;;;;22.41;54.80;101264.22;5093369;28;20032;-58
2023/07/22 09:25:35;;;;;;;11.68;6.00;;;;;;;22.29;53.72;101252.03;5093392;28;20316;-58
2023/07/22 09:28:01;;;;;;;9.30;5.90;;;;;;;22.00;54.61;101253.75;5093543;28;20489;-57
2023/07/22 09:30:27;;;;;;;10.48;6.30;;;;;;;21.95;54.89;101255.72;5092773;28;20142;-59
2023/07/22 09:32:58;;;;;;;10.25;5.75;;;;;;;22.02;54.28;101250.16;5093116;28;20020;-58
2023/07/22 09:35:29;;;;;;;12.38;5.70;;;;;;;22.05;54.89;101247.34;5093157;28;20031;-58
2023/07/22 09:37:55;;;;;;;18.67;6.17;;;;;;;22.03;54.95;101246.53;5093257;28;20024;-57
2023/07/22 09:40:26;;;;;;;9.35;5.80;;;;;;;21.94;53.93;101248.56;5093421;28;20270;-59
2023/07/22 09:42:56;;;;;;;10.05;5.38;;;;;;;22.03;54.51;101239.34;5093050;28;20024;-57
2023/07/22 09:45:24;;;;;;;10.93;5.20;;;;;;;22.00;53.55;101239.41;5075221;28;20108;-57
2023/07/22 09:47:51;;;;;;;11.45;5.55;;;;;;;22.13;54.17;101243.53;5092866;28;20027;-58
2023/07/22 09:50:22;;;;;;;11.32;5.70;;;;;;;22.25;55.39;101240.47;5093056;28;20102;-58
2023/07/22 09:52:50;;;;;;;7.88;5.18;;;;;;;22.38;54.41;101243.66;5093025;28;20034;-58
2023/07/22 09:55:23;;;;;;;8.93;5.35;;;;;;;22.45;52.94;101247.91;5093002;28;20564;-57
2023/07/22 09:58:00;;;;;;;9.38;5.38;;;;;;;22.52;53.88;101250.41;5092671;28;20438;-58
2023/07/22 10:00:33;;;;;;;12.30;5.60;;;;;;;22.29;54.96;101240.38;5092976;28;20461;-58
2023/07/22 10:02:59;;;;;;;10.00;4.85;;;;;;;22.32;53.19;101238.47;5092890;28;20031;-58
2023/07/22 10:05:27;;;;;;;9.20;4.90;;;;;;;22.20;54.54;101237.03;5093067;28;20028;-58
2023/07/22 10:07:54;;;;;;;10.70;4.90;;;;;;;22.03;54.07;101225.88;5092878;28;20103;-59
2023/07/22 10:10:23;;;;;;;7.68;4.35;;;;;;;21.93;53.89;101251.31;5092801;28;20024;-58
2023/07/22 10:12:49;;;;;;;9.00;4.43;;;;;;;21.77;54.42;101242.81;5092449;28;20107;-58
2023/07/22 10:15:17;;;;;;;7.60;4.50;;;;;;;21.52;55.58;101236.38;5092630;28;20051;-58
2023/07/22 10:17:44;;;;;;;12.88;4.60;;;;;;;21.50;55.60;101247.19;5074423;28;20028;-59
2023/07/22 10:20:14;;;;;;;9.60;4.88;;;;;;;21.74;56.14;101243.78;5074382;28;20032;-57
2023/07/22 10:22:44;;;;;;;9.20;4.63;;;;;;;21.77;55.52;101244.63;5092293;28;20040;-57
2023/07/22 10:25:17;;;;;;;12.60;4.68;;;;;;;21.86;54.91;101241.66;5092774;28;20024;-59
2023/07/22 10:27:43;;;;;;;9.38;4.55;;;;;;;22.06;55.31;101241.94;5086172;28;20501;-59
2023/07/22 10:30:11;;;;;;;10.60;4.55;;;;;;;22.21;54.02;101252.25;5071010;28;20048;-59
2023/07/22 10:32:44;;;;;;;10.48;4.50;;;;;;;22.08;54.11;101242.75;5071702;28;20120;-57
2023/07/22 10:35:31;;;;;;;12.40;4.28;;;;;;;22.17;54.24;101239.81;5072213;28;20097;-58
2023/07/22 10:38:13;;;;;;;10.68;4.30;;;;;;;22.08;54.18;101234.69;5072300;28;20107;-58
2023/07/22 10:40:45;;;;;;;9.35;4.07;;;;;;;22.32;53.81;101240.28;5072110;28;20024;-59
2023/07/22 10:43:11;;;;;;;7.88;3.70;;;;;;;22.50;53.88;101242.38;5071929;28;20036;-58
2023/07/22 10:45:41;;;;;;;11.80;4.50;;;;;;;22.68;53.81;101232.81;5072254;28;20029;-58
2023/07/22 10:48:14;;;;;;;8.25;4.20;;;;;;;23.00;53.74;101231.78;5071984;28;20550;-58
2023/07/22 10:50:51;;;;;;;10.82;3.92;;;;;;;23.28;51.13;101228.09;5072520;28;20025;-58
2023/07/22 10:53:19;;;;;;;8.57;4.13;;;;;;;23.26;51.48;101221.88;5071441;28;20424;-59
2023/07/22 10:56:14;;;;;;;8.73;3.75;;;;;;;23.49;51.62;101225.47;5071962;28;20025;-58
2023/07/22 10:58:46;;;;;;;10.65;3.88;;;;;;;23.49;50.08;101214.69;5073074;28;20028;-58
2023/07/22 11:01:29;;;;;;;8.18;3.70;;;;;;;23.60;50.12;101221.53;5075956;28;20376;-58
2023/07/22 11:04:11;;;;;;;6.75;2.92;;;;;;;23.57;46.77;101229.72;5075789;28;20028;-58
2023/07/22 11:06:48;;;;;;;4.90;2.80;;;;;;;23.50;46.17;101220.97;5075477;28;20028;-58
2023/07/22 11:09:34;;;;;;;6.88;2.90;;;;;;;23.68;46.57;101223.03;5075302;28;20028;-59